sensor_id;sensor_type;location;lat;lon;timestamp;P1;durP1;ratioP1;P2;durP2;ratioP2
51292;SDS011;37377;45.186;9.778;2023-02-01T00:01:23;73.50;;;38.80;;
51292;SDS011;37377;45.186;9.778;2023-02-01T00:03:52;75.43;;;37.60;;
51292;SDS011;37377;45.186;9.778;2023-02-01T00:06:19;80.40;;;38.85;;
51292;SDS011;37377;45.186;9.778;2023-02-01T00:08:46;87.50;;;41.08;;
51292;SDS011;37377;45.186;9.778;2023-02-01T00:11:13;83.15;;;42.47;;
51292;SDS011;37377;45.186;9.778;2023-02-01T00:13:40;78.20;;;38.13;;
51292;SDS011;37377;45.186;9.778;2023-02-01T00:16:09;72.13;;;39.58;;
51292;SDS011;37377;45.186;9.778;2023-02-01T00:18:36;74.05;;;39.20;;
51292;SDS011;37377;45.186;9.778;2023-02-01T00:21:03;67.75;;;37.70;;
51292;SDS011;37377;45.186;9.778;2023-02-01T00:23:33;83.78;;;40.90;;
51292;SDS011;37377;45.186;9.778;2023-02-01T00:26:01;78.72;;;40.13;;
51292;SDS011;37377;45.186;9.778;2023-02-01T00:28:28;80.75;;;40.80;;
51292;SDS011;37377;45.186;9.778;2023-02-01T00:31:04;82.47;;;41.35;;
51292;SDS011;37377;45.186;9.778;2023-02-01T00:33:31;81.75;;;39.40;;
51292;SDS011;37377;45.186;9.778;2023-02-01T00:35:59;77.95;;;39.45;;
51292;SDS011;37377;45.186;9.778;2023-02-01T00:38:26;72.38;;;38.95;;
51292;SDS011;37377;45.186;9.778;2023-02-01T00:40:53;77.28;;;39.13;;
51292;SDS011;37377;45.186;9.778;2023-02-01T00:43:20;69.93;;;35.30;;
51292;SDS011;37377;45.186;9.778;2023-02-01T00:45:47;70.35;;;38.40;;
51292;SDS011;37377;45.186;9.778;2023-02-01T00:48:14;74.70;;;36.92;;
51292;SDS011;37377;45.186;9.778;2023-02-01T00:50:41;78.97;;;40.17;;
51292;SDS011;37377;45.186;9.778;2023-02-01T00:53:09;87.82;;;39.55;;
51292;SDS011;37377;45.186;9.778;2023-02-01T00:55:36;90.32;;;38.83;;
51292;SDS011;37377;45.186;9.778;2023-02-01T00:58:04;79.55;;;41.30;;
51292;SDS011;37377;45.186;9.778;2023-02-01T01:00:32;78.75;;;38.60;;
51292;SDS011;37377;45.186;9.778;2023-02-01T01:02:59;78.88;;;39.30;;
51292;SDS011;37377;45.186;9.778;2023-02-01T01:05:26;80.68;;;39.28;;
51292;SDS011;37377;45.186;9.778;2023-02-01T01:10:27;78.32;;;38.40;;
51292;SDS011;37377;45.186;9.778;2023-02-01T01:12:53;76.90;;;39.65;;
51292;SDS011;37377;45.186;9.778;2023-02-01T01:15:20;77.70;;;37.83;;
51292;SDS011;37377;45.186;9.778;2023-02-01T01:17:47;74.22;;;37.28;;
51292;SDS011;37377;45.186;9.778;2023-02-01T01:20:14;83.78;;;39.33;;
51292;SDS011;37377;45.186;9.778;2023-02-01T01:22:43;82.25;;;38.35;;
51292;SDS011;37377;45.186;9.778;2023-02-01T01:25:11;77.03;;;37.83;;
51292;SDS011;37377;45.186;9.778;2023-02-01T01:27:37;76.47;;;35.45;;
51292;SDS011;37377;45.186;9.778;2023-02-01T01:30:05;67.68;;;35.33;;
51292;SDS011;37377;45.186;9.778;2023-02-01T01:32:32;71.15;;;37.28;;
51292;SDS011;37377;45.186;9.778;2023-02-01T01:34:59;84.35;;;39.65;;
51292;SDS011;37377;45.186;9.778;2023-02-01T01:37:26;63.50;;;36.80;;
51292;SDS011;37377;45.186;9.778;2023-02-01T01:39:52;80.15;;;38.15;;
51292;SDS011;37377;45.186;9.778;2023-02-01T01:42:22;69.93;;;39.03;;
51292;SDS011;37377;45.186;9.778;2023-02-01T01:44:56;82.60;;;39.13;;
51292;SDS011;37377;45.186;9.778;2023-02-01T01:47:25;76.88;;;39.65;;
51292;SDS011;37377;45.186;9.778;2023-02-01T01:49:54;71.90;;;37.33;;
51292;SDS011;37377;45.186;9.778;2023-02-01T01:52:21;79.60;;;38.10;;
51292;SDS011;37377;45.186;9.778;2023-02-01T01:54:48;79.75;;;40.17;;
51292;SDS011;37377;45.186;9.778;2023-02-01T01:57:24;69.20;;;38.35;;
51292;SDS011;37377;45.186;9.778;2023-02-01T01:59:54;72.28;;;39.17;;
51292;SDS011;37377;45.186;9.778;2023-02-01T02:02:23;79.60;;;36.63;;
51292;SDS011;37377;45.186;9.778;2023-02-01T02:04:51;66.32;;;37.13;;
51292;SDS011;37377;45.186;9.778;2023-02-01T02:07:20;82.47;;;35.00;;
51292;SDS011;37377;45.186;9.778;2023-02-01T02:09:49;74.65;;;36.42;;
51292;SDS011;37377;45.186;9.778;2023-02-01T02:12:27;66.25;;;33.22;;
51292;SDS011;37377;45.186;9.778;2023-02-01T02:14:54;64.60;;;34.55;;
51292;SDS011;37377;45.186;9.778;2023-02-01T02:22:48;67.97;;;36.30;;
51292;SDS011;37377;45.186;9.778;2023-02-01T02:36:03;76.80;;;36.35;;
51292;SDS011;37377;45.186;9.778;2023-02-01T02:38:37;68.57;;;37.20;;
51292;SDS011;37377;45.186;9.778;2023-02-01T02:41:13;73.70;;;37.13;;
51292;SDS011;37377;45.186;9.778;2023-02-01T02:44:04;81.45;;;35.50;;
51292;SDS011;37377;45.186;9.778;2023-02-01T02:46:53;73.88;;;35.78;;
51292;SDS011;37377;45.186;9.778;2023-02-01T02:52:33;67.28;;;34.85;;
51292;SDS011;37377;45.186;9.778;2023-02-01T02:55:21;67.93;;;35.03;;
51292;SDS011;37377;45.186;9.778;2023-02-01T02:57:48;72.50;;;36.03;;
51292;SDS011;37377;45.186;9.778;2023-02-01T03:00:34;73.97;;;36.50;;
51292;SDS011;37377;45.186;9.778;2023-02-01T03:03:20;74.18;;;35.25;;
51292;SDS011;37377;45.186;9.778;2023-02-01T03:06:11;75.93;;;35.35;;
51292;SDS011;37377;45.186;9.778;2023-02-01T03:08:38;73.55;;;32.78;;
51292;SDS011;37377;45.186;9.778;2023-02-01T03:11:12;64.47;;;31.75;;
51292;SDS011;37377;45.186;9.778;2023-02-01T03:13:45;61.60;;;32.22;;
51292;SDS011;37377;45.186;9.778;2023-02-01T03:22:01;67.77;;;31.43;;
51292;SDS011;37377;45.186;9.778;2023-02-01T03:24:03;66.50;;;33.72;;
51292;SDS011;37377;45.186;9.778;2023-02-01T03:26:31;64.57;;;31.25;;
51292;SDS011;37377;45.186;9.778;2023-02-01T03:29:02;67.68;;;33.40;;
51292;SDS011;37377;45.186;9.778;2023-02-01T03:31:30;69.40;;;34.50;;
51292;SDS011;37377;45.186;9.778;2023-02-01T03:33:58;64.20;;;31.95;;
51292;SDS011;37377;45.186;9.778;2023-02-01T03:36:26;72.32;;;34.47;;
51292;SDS011;37377;45.186;9.778;2023-02-01T03:39:15;65.03;;;34.50;;
51292;SDS011;37377;45.186;9.778;2023-02-01T03:41:44;67.50;;;32.50;;
51292;SDS011;37377;45.186;9.778;2023-02-01T03:44:16;63.17;;;31.27;;
51292;SDS011;37377;45.186;9.778;2023-02-01T03:49:35;64.90;;;32.47;;
51292;SDS011;37377;45.186;9.778;2023-02-01T03:52:04;62.67;;;31.50;;
51292;SDS011;37377;45.186;9.778;2023-02-01T03:54:33;65.00;;;31.17;;
51292;SDS011;37377;45.186;9.778;2023-02-01T03:57:04;69.50;;;34.15;;
51292;SDS011;37377;45.186;9.778;2023-02-01T03:59:34;64.22;;;31.92;;
51292;SDS011;37377;45.186;9.778;2023-02-01T04:02:01;61.90;;;32.78;;
51292;SDS011;37377;45.186;9.778;2023-02-01T04:04:28;60.97;;;32.38;;
51292;SDS011;37377;45.186;9.778;2023-02-01T04:06:55;67.53;;;33.45;;
51292;SDS011;37377;45.186;9.778;2023-02-01T04:09:23;65.78;;;31.60;;
51292;SDS011;37377;45.186;9.778;2023-02-01T04:11:50;71.78;;;33.63;;
51292;SDS011;37377;45.186;9.778;2023-02-01T04:14:17;73.55;;;32.95;;
51292;SDS011;37377;45.186;9.778;2023-02-01T04:16:44;59.83;;;30.88;;
51292;SDS011;37377;45.186;9.778;2023-02-01T04:19:11;58.53;;;31.17;;
51292;SDS011;37377;45.186;9.778;2023-02-01T04:21:37;66.00;;;31.08;;
51292;SDS011;37377;45.186;9.778;2023-02-01T04:24:05;64.03;;;32.10;;
51292;SDS011;37377;45.186;9.778;2023-02-01T04:26:32;67.00;;;31.00;;
51292;SDS011;37377;45.186;9.778;2023-02-01T04:28:59;63.20;;;32.95;;
51292;SDS011;37377;45.186;9.778;2023-02-01T04:31:25;185.20;;;34.45;;
51292;SDS011;37377;45.186;9.778;2023-02-01T04:33:54;57.15;;;31.23;;
51292;SDS011;37377;45.186;9.778;2023-02-01T04:36:21;56.63;;;30.33;;
51292;SDS011;37377;45.186;9.778;2023-02-01T04:38:49;59.65;;;29.92;;
51292;SDS011;37377;45.186;9.778;2023-02-01T04:41:16;59.95;;;31.98;;
51292;SDS011;37377;45.186;9.778;2023-02-01T04:43:49;64.18;;;30.88;;
51292;SDS011;37377;45.186;9.778;2023-02-01T04:46:16;57.65;;;29.15;;
51292;SDS011;37377;45.186;9.778;2023-02-01T04:48:43;59.60;;;29.05;;
51292;SDS011;37377;45.186;9.778;2023-02-01T04:51:10;57.03;;;29.10;;
51292;SDS011;37377;45.186;9.778;2023-02-01T04:53:37;55.45;;;29.58;;
51292;SDS011;37377;45.186;9.778;2023-02-01T04:56:04;53.13;;;28.77;;
51292;SDS011;37377;45.186;9.778;2023-02-01T04:58:32;49.35;;;26.90;;
51292;SDS011;37377;45.186;9.778;2023-02-01T05:00:59;50.10;;;27.70;;
51292;SDS011;37377;45.186;9.778;2023-02-01T05:03:34;57.42;;;28.55;;
51292;SDS011;37377;45.186;9.778;2023-02-01T05:06:01;51.80;;;29.42;;
51292;SDS011;37377;45.186;9.778;2023-02-01T05:08:31;73.78;;;29.55;;
51292;SDS011;37377;45.186;9.778;2023-02-01T05:10:58;354.77;;;31.75;;
51292;SDS011;37377;45.186;9.778;2023-02-01T05:13:25;381.30;;;32.83;;
51292;SDS011;37377;45.186;9.778;2023-02-01T05:16:10;127.35;;;27.77;;
51292;SDS011;37377;45.186;9.778;2023-02-01T05:18:37;46.28;;;27.13;;
51292;SDS011;37377;45.186;9.778;2023-02-01T05:21:04;51.42;;;27.50;;
51292;SDS011;37377;45.186;9.778;2023-02-01T05:23:31;67.93;;;28.85;;
51292;SDS011;37377;45.186;9.778;2023-02-01T05:25:58;96.18;;;34.45;;
51292;SDS011;37377;45.186;9.778;2023-02-01T05:28:26;99.28;;;34.80;;
51292;SDS011;37377;45.186;9.778;2023-02-01T05:30:53;113.07;;;34.03;;
51292;SDS011;37377;45.186;9.778;2023-02-01T05:33:20;77.07;;;34.60;;
51292;SDS011;37377;45.186;9.778;2023-02-01T05:35:47;70.88;;;33.78;;
51292;SDS011;37377;45.186;9.778;2023-02-01T05:38:14;74.10;;;34.83;;
51292;SDS011;37377;45.186;9.778;2023-02-01T05:40:41;76.65;;;36.78;;
51292;SDS011;37377;45.186;9.778;2023-02-01T05:43:08;65.57;;;33.25;;
51292;SDS011;37377;45.186;9.778;2023-02-01T05:45:35;193.15;;;33.03;;
51292;SDS011;37377;45.186;9.778;2023-02-01T05:48:02;216.18;;;31.58;;
51292;SDS011;37377;45.186;9.778;2023-02-01T05:50:28;316.27;;;35.38;;
51292;SDS011;37377;45.186;9.778;2023-02-01T05:52:56;160.18;;;31.60;;
51292;SDS011;37377;45.186;9.778;2023-02-01T05:55:23;212.90;;;33.85;;
51292;SDS011;37377;45.186;9.778;2023-02-01T05:57:51;306.88;;;32.90;;
51292;SDS011;37377;45.186;9.778;2023-02-01T06:00:19;299.50;;;35.50;;
51292;SDS011;37377;45.186;9.778;2023-02-01T06:02:48;352.33;;;32.45;;
51292;SDS011;37377;45.186;9.778;2023-02-01T06:05:15;146.30;;;29.63;;
51292;SDS011;37377;45.186;9.778;2023-02-01T06:07:41;163.32;;;30.15;;
51292;SDS011;37377;45.186;9.778;2023-02-01T06:10:09;77.68;;;30.52;;
51292;SDS011;37377;45.186;9.778;2023-02-01T06:12:36;71.32;;;33.72;;
51292;SDS011;37377;45.186;9.778;2023-02-01T06:15:03;69.70;;;34.70;;
51292;SDS011;37377;45.186;9.778;2023-02-01T06:17:30;77.80;;;40.10;;
51292;SDS011;37377;45.186;9.778;2023-02-01T06:19:56;109.70;;;56.25;;
51292;SDS011;37377;45.186;9.778;2023-02-01T06:22:23;95.82;;;42.90;;
51292;SDS011;37377;45.186;9.778;2023-02-01T06:24:50;78.43;;;42.08;;
51292;SDS011;37377;45.186;9.778;2023-02-01T06:27:17;80.15;;;43.17;;
51292;SDS011;37377;45.186;9.778;2023-02-01T06:29:44;132.60;;;39.75;;
51292;SDS011;37377;45.186;9.778;2023-02-01T06:32:10;171.95;;;37.65;;
51292;SDS011;37377;45.186;9.778;2023-02-01T06:34:37;112.50;;;38.92;;
51292;SDS011;37377;45.186;9.778;2023-02-01T06:37:08;71.55;;;38.45;;
51292;SDS011;37377;45.186;9.778;2023-02-01T06:39:35;69.15;;;38.95;;
51292;SDS011;37377;45.186;9.778;2023-02-01T06:42:02;75.82;;;38.53;;
51292;SDS011;37377;45.186;9.778;2023-02-01T06:44:29;68.80;;;35.65;;
51292;SDS011;37377;45.186;9.778;2023-02-01T06:46:56;54.95;;;33.13;;
51292;SDS011;37377;45.186;9.778;2023-02-01T06:49:23;66.07;;;33.50;;
51292;SDS011;37377;45.186;9.778;2023-02-01T06:51:50;56.70;;;31.65;;
51292;SDS011;37377;45.186;9.778;2023-02-01T06:54:17;51.78;;;28.90;;
51292;SDS011;37377;45.186;9.778;2023-02-01T06:56:44;51.33;;;28.67;;
51292;SDS011;37377;45.186;9.778;2023-02-01T06:59:11;59.22;;;28.95;;
51292;SDS011;37377;45.186;9.778;2023-02-01T07:01:39;52.78;;;27.90;;
51292;SDS011;37377;45.186;9.778;2023-02-01T07:04:08;50.78;;;27.88;;
51292;SDS011;37377;45.186;9.778;2023-02-01T07:06:36;50.47;;;28.33;;
51292;SDS011;37377;45.186;9.778;2023-02-01T07:09:03;54.33;;;29.20;;
51292;SDS011;37377;45.186;9.778;2023-02-01T07:11:30;56.05;;;30.13;;
51292;SDS011;37377;45.186;9.778;2023-02-01T07:13:58;53.67;;;29.38;;
51292;SDS011;37377;45.186;9.778;2023-02-01T07:16:25;54.13;;;28.42;;
51292;SDS011;37377;45.186;9.778;2023-02-01T07:18:53;49.72;;;27.77;;
51292;SDS011;37377;45.186;9.778;2023-02-01T07:21:19;46.28;;;24.75;;
51292;SDS011;37377;45.186;9.778;2023-02-01T07:23:47;40.20;;;21.42;;
51292;SDS011;37377;45.186;9.778;2023-02-01T07:26:14;38.88;;;21.05;;
51292;SDS011;37377;45.186;9.778;2023-02-01T07:28:43;35.90;;;20.40;;
51292;SDS011;37377;45.186;9.778;2023-02-01T07:31:11;47.15;;;23.95;;
51292;SDS011;37377;45.186;9.778;2023-02-01T07:33:38;51.58;;;26.48;;
51292;SDS011;37377;45.186;9.778;2023-02-01T07:36:06;46.92;;;26.75;;
51292;SDS011;37377;45.186;9.778;2023-02-01T07:38:33;60.63;;;25.55;;
51292;SDS011;37377;45.186;9.778;2023-02-01T07:41:00;44.88;;;25.27;;
51292;SDS011;37377;45.186;9.778;2023-02-01T07:43:28;60.53;;;26.27;;
51292;SDS011;37377;45.186;9.778;2023-02-01T07:45:55;39.33;;;24.58;;
51292;SDS011;37377;45.186;9.778;2023-02-01T07:48:22;49.33;;;24.70;;
51292;SDS011;37377;45.186;9.778;2023-02-01T07:50:56;42.67;;;25.38;;
51292;SDS011;37377;45.186;9.778;2023-02-01T07:53:23;44.30;;;24.10;;
51292;SDS011;37377;45.186;9.778;2023-02-01T07:55:50;48.13;;;23.95;;
51292;SDS011;37377;45.186;9.778;2023-02-01T07:58:17;44.70;;;22.27;;
51292;SDS011;37377;45.186;9.778;2023-02-01T08:00:45;36.67;;;21.80;;
51292;SDS011;37377;45.186;9.778;2023-02-01T08:03:31;33.50;;;21.50;;
51292;SDS011;37377;45.186;9.778;2023-02-01T08:05:58;31.70;;;20.42;;
51292;SDS011;37377;45.186;9.778;2023-02-01T08:08:25;37.85;;;20.00;;
51292;SDS011;37377;45.186;9.778;2023-02-01T08:10:56;40.42;;;20.35;;
51292;SDS011;37377;45.186;9.778;2023-02-01T08:13:23;36.20;;;21.63;;
51292;SDS011;37377;45.186;9.778;2023-02-01T08:15:50;34.63;;;20.88;;
51292;SDS011;37377;45.186;9.778;2023-02-01T08:18:17;37.70;;;20.83;;
51292;SDS011;37377;45.186;9.778;2023-02-01T08:20:44;44.40;;;23.27;;
51292;SDS011;37377;45.186;9.778;2023-02-01T08:23:14;47.33;;;25.05;;
51292;SDS011;37377;45.186;9.778;2023-02-01T08:25:42;35.20;;;22.83;;
51292;SDS011;37377;45.186;9.778;2023-02-01T08:28:09;39.22;;;24.05;;
51292;SDS011;37377;45.186;9.778;2023-02-01T08:30:36;37.42;;;25.17;;
51292;SDS011;37377;45.186;9.778;2023-02-01T08:33:05;41.75;;;25.23;;
51292;SDS011;37377;45.186;9.778;2023-02-01T08:35:35;40.97;;;25.67;;
51292;SDS011;37377;45.186;9.778;2023-02-01T08:38:09;36.95;;;25.38;;
51292;SDS011;37377;45.186;9.778;2023-02-01T08:40:36;56.25;;;27.58;;
51292;SDS011;37377;45.186;9.778;2023-02-01T08:43:04;40.15;;;26.20;;
51292;SDS011;37377;45.186;9.778;2023-02-01T08:45:31;41.97;;;26.08;;
51292;SDS011;37377;45.186;9.778;2023-02-01T08:47:59;41.50;;;25.17;;
51292;SDS011;37377;45.186;9.778;2023-02-01T08:50:27;42.38;;;24.73;;
51292;SDS011;37377;45.186;9.778;2023-02-01T08:52:54;45.67;;;25.33;;
51292;SDS011;37377;45.186;9.778;2023-02-01T08:55:21;43.47;;;25.92;;
51292;SDS011;37377;45.186;9.778;2023-02-01T08:57:49;41.45;;;26.15;;
51292;SDS011;37377;45.186;9.778;2023-02-01T09:00:16;52.95;;;25.58;;
51292;SDS011;37377;45.186;9.778;2023-02-01T09:02:44;41.70;;;25.38;;
51292;SDS011;37377;45.186;9.778;2023-02-01T09:05:11;37.15;;;24.88;;
51292;SDS011;37377;45.186;9.778;2023-02-01T09:07:38;47.90;;;27.20;;
51292;SDS011;37377;45.186;9.778;2023-02-01T09:10:05;48.72;;;25.45;;
51292;SDS011;37377;45.186;9.778;2023-02-01T09:12:32;48.05;;;25.98;;
51292;SDS011;37377;45.186;9.778;2023-02-01T09:15:03;42.78;;;25.55;;
51292;SDS011;37377;45.186;9.778;2023-02-01T09:17:33;39.70;;;26.00;;
51292;SDS011;37377;45.186;9.778;2023-02-01T09:20:03;42.50;;;26.05;;
51292;SDS011;37377;45.186;9.778;2023-02-01T09:22:31;55.17;;;28.25;;
51292;SDS011;37377;45.186;9.778;2023-02-01T09:24:58;47.60;;;26.83;;
51292;SDS011;37377;45.186;9.778;2023-02-01T09:27:26;49.47;;;26.60;;
51292;SDS011;37377;45.186;9.778;2023-02-01T09:29:53;41.85;;;26.52;;
51292;SDS011;37377;45.186;9.778;2023-02-01T09:32:20;44.85;;;27.10;;
51292;SDS011;37377;45.186;9.778;2023-02-01T09:34:48;56.00;;;28.77;;
51292;SDS011;37377;45.186;9.778;2023-02-01T09:37:15;60.97;;;31.02;;
51292;SDS011;37377;45.186;9.778;2023-02-01T09:39:42;56.85;;;32.17;;
51292;SDS011;37377;45.186;9.778;2023-02-01T09:47:14;56.88;;;31.75;;
51292;SDS011;37377;45.186;9.778;2023-02-01T09:49:47;77.90;;;35.17;;
51292;SDS011;37377;45.186;9.778;2023-02-01T09:52:17;60.55;;;36.58;;
51292;SDS011;37377;45.186;9.778;2023-02-01T09:54:49;61.10;;;35.88;;
51292;SDS011;37377;45.186;9.778;2023-02-01T09:57:22;70.43;;;34.55;;
51292;SDS011;37377;45.186;9.778;2023-02-01T09:59:51;60.70;;;35.15;;
51292;SDS011;37377;45.186;9.778;2023-02-01T10:02:20;56.72;;;34.67;;
51292;SDS011;37377;45.186;9.778;2023-02-01T10:04:48;69.85;;;35.03;;
51292;SDS011;37377;45.186;9.778;2023-02-01T10:07:19;66.07;;;34.17;;
51292;SDS011;37377;45.186;9.778;2023-02-01T10:10:23;68.30;;;34.85;;
51292;SDS011;37377;45.186;9.778;2023-02-01T10:23:50;57.20;;;33.50;;
51292;SDS011;37377;45.186;9.778;2023-02-01T10:26:22;67.68;;;34.47;;
51292;SDS011;37377;45.186;9.778;2023-02-01T10:28:53;62.15;;;36.05;;
51292;SDS011;37377;45.186;9.778;2023-02-01T10:31:22;88.28;;;38.92;;
51292;SDS011;37377;45.186;9.778;2023-02-01T10:33:59;69.40;;;36.42;;
51292;SDS011;37377;45.186;9.778;2023-02-01T10:36:32;80.10;;;38.35;;
51292;SDS011;37377;45.186;9.778;2023-02-01T10:38:59;64.00;;;38.50;;
51292;SDS011;37377;45.186;9.778;2023-02-01T10:41:36;76.13;;;39.85;;
51292;SDS011;37377;45.186;9.778;2023-02-01T10:44:13;67.95;;;41.00;;
51292;SDS011;37377;45.186;9.778;2023-02-01T10:46:40;64.68;;;37.08;;
51292;SDS011;37377;45.186;9.778;2023-02-01T10:49:11;60.30;;;35.40;;
51292;SDS011;37377;45.186;9.778;2023-02-01T10:52:15;67.88;;;36.40;;
51292;SDS011;37377;45.186;9.778;2023-02-01T10:54:35;60.42;;;36.75;;
51292;SDS011;37377;45.186;9.778;2023-02-01T10:57:24;61.88;;;36.88;;
51292;SDS011;37377;45.186;9.778;2023-02-01T10:59:52;65.57;;;34.78;;
51292;SDS011;37377;45.186;9.778;2023-02-01T11:04:46;59.85;;;35.95;;
51292;SDS011;37377;45.186;9.778;2023-02-01T11:07:16;61.10;;;36.53;;
51292;SDS011;37377;45.186;9.778;2023-02-01T11:09:47;59.40;;;34.47;;
51292;SDS011;37377;45.186;9.778;2023-02-01T11:12:34;60.67;;;37.85;;
51292;SDS011;37377;45.186;9.778;2023-02-01T11:15:13;56.53;;;35.53;;
51292;SDS011;37377;45.186;9.778;2023-02-01T11:17:44;67.93;;;37.45;;
51292;SDS011;37377;45.186;9.778;2023-02-01T11:20:15;52.85;;;34.53;;
51292;SDS011;37377;45.186;9.778;2023-02-01T11:22:46;58.10;;;34.92;;
51292;SDS011;37377;45.186;9.778;2023-02-01T11:25:14;57.83;;;34.50;;
51292;SDS011;37377;45.186;9.778;2023-02-01T11:27:42;58.53;;;33.90;;
51292;SDS011;37377;45.186;9.778;2023-02-01T11:30:33;55.83;;;32.85;;
51292;SDS011;37377;45.186;9.778;2023-02-01T11:33:01;59.15;;;31.63;;
51292;SDS011;37377;45.186;9.778;2023-02-01T11:35:32;49.92;;;31.50;;
51292;SDS011;37377;45.186;9.778;2023-02-01T11:37:59;54.30;;;33.00;;
51292;SDS011;37377;45.186;9.778;2023-02-01T11:40:27;55.30;;;31.88;;
51292;SDS011;37377;45.186;9.778;2023-02-01T11:45:58;61.35;;;36.80;;
51292;SDS011;37377;45.186;9.778;2023-02-01T11:48:31;57.83;;;34.20;;
51292;SDS011;37377;45.186;9.778;2023-02-01T11:51:24;60.87;;;36.90;;
51292;SDS011;37377;45.186;9.778;2023-02-01T12:23:55;70.72;;;36.55;;
51292;SDS011;37377;45.186;9.778;2023-02-01T12:26:24;52.70;;;28.60;;
51292;SDS011;37377;45.186;9.778;2023-02-01T12:31:27;44.63;;;28.95;;
51292;SDS011;37377;45.186;9.778;2023-02-01T12:44:19;49.95;;;27.10;;
51292;SDS011;37377;45.186;9.778;2023-02-01T12:46:56;50.28;;;27.40;;
51292;SDS011;37377;45.186;9.778;2023-02-01T12:49:29;47.08;;;28.58;;
51292;SDS011;37377;45.186;9.778;2023-02-01T12:52:01;52.33;;;29.27;;
51292;SDS011;37377;45.186;9.778;2023-02-01T12:54:47;48.15;;;29.25;;
51292;SDS011;37377;45.186;9.778;2023-02-01T12:57:17;51.67;;;32.55;;
51292;SDS011;37377;45.186;9.778;2023-02-01T13:02:38;59.30;;;32.55;;
51292;SDS011;37377;45.186;9.778;2023-02-01T13:05:16;53.15;;;34.67;;
51292;SDS011;37377;45.186;9.778;2023-02-01T13:10:22;49.33;;;29.88;;
51292;SDS011;37377;45.186;9.778;2023-02-01T13:15:24;53.75;;;27.58;;
51292;SDS011;37377;45.186;9.778;2023-02-01T13:28:17;52.25;;;29.23;;
51292;SDS011;37377;45.186;9.778;2023-02-01T13:31:00;48.30;;;30.87;;
51292;SDS011;37377;45.186;9.778;2023-02-01T13:36:39;48.78;;;29.65;;
51292;SDS011;37377;45.186;9.778;2023-02-01T13:41:51;49.90;;;28.67;;
51292;SDS011;37377;45.186;9.778;2023-02-01T13:44:23;47.83;;;28.93;;
51292;SDS011;37377;45.186;9.778;2023-02-01T13:46:53;56.75;;;30.95;;
51292;SDS011;37377;45.186;9.778;2023-02-01T13:49:29;59.95;;;32.17;;
51292;SDS011;37377;45.186;9.778;2023-02-01T13:51:58;69.72;;;34.28;;
51292;SDS011;37377;45.186;9.778;2023-02-01T13:54:35;54.63;;;31.95;;
51292;SDS011;37377;45.186;9.778;2023-02-01T13:57:05;57.90;;;31.98;;
51292;SDS011;37377;45.186;9.778;2023-02-01T14:04:57;46.35;;;31.60;;
51292;SDS011;37377;45.186;9.778;2023-02-01T14:07:25;40.90;;;27.33;;
51292;SDS011;37377;45.186;9.778;2023-02-01T14:09:52;55.80;;;27.90;;
51292;SDS011;37377;45.186;9.778;2023-02-01T14:15:39;50.97;;;27.45;;
51292;SDS011;37377;45.186;9.778;2023-02-01T14:17:59;51.35;;;29.05;;
51292;SDS011;37377;45.186;9.778;2023-02-01T14:20:42;44.03;;;28.27;;
51292;SDS011;37377;45.186;9.778;2023-02-01T14:23:14;52.80;;;29.73;;
51292;SDS011;37377;45.186;9.778;2023-02-01T14:25:42;63.55;;;36.60;;
51292;SDS011;37377;45.186;9.778;2023-02-01T14:28:23;63.40;;;32.45;;
51292;SDS011;37377;45.186;9.778;2023-02-01T14:30:51;63.42;;;33.45;;
51292;SDS011;37377;45.186;9.778;2023-02-01T14:33:21;74.47;;;41.63;;
51292;SDS011;37377;45.186;9.778;2023-02-01T14:36:11;66.25;;;30.95;;
51292;SDS011;37377;45.186;9.778;2023-02-01T14:38:38;48.60;;;27.58;;
51292;SDS011;37377;45.186;9.778;2023-02-01T14:49:17;39.60;;;23.25;;
51292;SDS011;37377;45.186;9.778;2023-02-01T14:51:48;36.33;;;23.63;;
51292;SDS011;37377;45.186;9.778;2023-02-01T14:54:17;45.30;;;23.02;;
51292;SDS011;37377;45.186;9.778;2023-02-01T14:56:45;46.15;;;23.98;;
51292;SDS011;37377;45.186;9.778;2023-02-01T14:59:13;44.78;;;24.10;;
51292;SDS011;37377;45.186;9.778;2023-02-01T15:01:49;39.60;;;23.60;;
51292;SDS011;37377;45.186;9.778;2023-02-01T15:04:17;44.45;;;25.50;;
51292;SDS011;37377;45.186;9.778;2023-02-01T15:06:52;44.30;;;25.02;;
51292;SDS011;37377;45.186;9.778;2023-02-01T15:09:27;48.15;;;26.83;;
51292;SDS011;37377;45.186;9.778;2023-02-01T15:12:03;42.85;;;20.95;;
51292;SDS011;37377;45.186;9.778;2023-02-01T15:14:32;41.50;;;21.38;;
51292;SDS011;37377;45.186;9.778;2023-02-01T15:17:03;48.45;;;24.35;;
51292;SDS011;37377;45.186;9.778;2023-02-01T15:19:53;39.22;;;23.95;;
51292;SDS011;37377;45.186;9.778;2023-02-01T15:22:21;46.88;;;23.33;;
51292;SDS011;37377;45.186;9.778;2023-02-01T15:24:55;39.83;;;21.95;;
51292;SDS011;37377;45.186;9.778;2023-02-01T15:27:24;41.45;;;24.05;;
51292;SDS011;37377;45.186;9.778;2023-02-01T15:29:51;50.80;;;26.42;;
51292;SDS011;37377;45.186;9.778;2023-02-01T15:32:30;38.35;;;22.73;;
51292;SDS011;37377;45.186;9.778;2023-02-01T15:35:00;43.92;;;23.15;;
51292;SDS011;37377;45.186;9.778;2023-02-01T15:37:27;42.67;;;24.00;;
51292;SDS011;37377;45.186;9.778;2023-02-01T15:40:05;46.53;;;26.35;;
51292;SDS011;37377;45.186;9.778;2023-02-01T15:43:17;46.92;;;25.55;;
51292;SDS011;37377;45.186;9.778;2023-02-01T15:45:26;49.20;;;25.63;;
51292;SDS011;37377;45.186;9.778;2023-02-01T15:47:54;50.75;;;27.00;;
51292;SDS011;37377;45.186;9.778;2023-02-01T15:50:22;69.30;;;40.75;;
51292;SDS011;37377;45.186;9.778;2023-02-01T15:52:52;50.40;;;31.05;;
51292;SDS011;37377;45.186;9.778;2023-02-01T15:55:23;49.72;;;28.98;;
51292;SDS011;37377;45.186;9.778;2023-02-01T15:57:56;52.72;;;27.77;;
51292;SDS011;37377;45.186;9.778;2023-02-01T16:00:25;50.33;;;29.38;;
51292;SDS011;37377;45.186;9.778;2023-02-01T16:05:42;56.03;;;29.05;;
51292;SDS011;37377;45.186;9.778;2023-02-01T16:08:16;43.78;;;26.83;;
51292;SDS011;37377;45.186;9.778;2023-02-01T16:10:44;53.33;;;28.48;;
51292;SDS011;37377;45.186;9.778;2023-02-01T16:13:12;46.30;;;28.70;;
51292;SDS011;37377;45.186;9.778;2023-02-01T16:15:39;56.38;;;28.83;;
51292;SDS011;37377;45.186;9.778;2023-02-01T16:18:06;47.75;;;28.50;;
51292;SDS011;37377;45.186;9.778;2023-02-01T16:20:35;60.38;;;29.15;;
51292;SDS011;37377;45.186;9.778;2023-02-01T16:23:02;50.25;;;29.83;;
51292;SDS011;37377;45.186;9.778;2023-02-01T16:25:29;50.33;;;28.85;;
51292;SDS011;37377;45.186;9.778;2023-02-01T16:27:56;48.60;;;27.55;;
51292;SDS011;37377;45.186;9.778;2023-02-01T16:30:23;45.92;;;26.70;;
51292;SDS011;37377;45.186;9.778;2023-02-01T16:32:57;49.75;;;26.83;;
51292;SDS011;37377;45.186;9.778;2023-02-01T16:37:52;54.83;;;28.90;;
51292;SDS011;37377;45.186;9.778;2023-02-01T16:40:19;63.00;;;30.23;;
51292;SDS011;37377;45.186;9.778;2023-02-01T16:42:49;47.10;;;30.08;;
51292;SDS011;37377;45.186;9.778;2023-02-01T16:45:16;63.70;;;33.08;;
51292;SDS011;37377;45.186;9.778;2023-02-01T16:47:53;67.45;;;37.08;;
51292;SDS011;37377;45.186;9.778;2023-02-01T16:50:21;61.97;;;34.92;;
51292;SDS011;37377;45.186;9.778;2023-02-01T16:52:50;61.40;;;34.67;;
51292;SDS011;37377;45.186;9.778;2023-02-01T16:55:18;58.97;;;30.80;;
51292;SDS011;37377;45.186;9.778;2023-02-01T16:57:45;62.42;;;31.85;;